Date,TemperatureHighF,TemperatureAvgF,TemperatureLowF,DewpointHighF,DewpointAvgF,DewpointLowF,HumidityHigh,HumidityAvg,HumidityLow,PressureMaxIn,PressureMinIn,WindSpeedMaxMPH,WindSpeedAvgMPH,GustSpeedMaxMPH,PrecipitationSumIn
2013-1-1,56.1,40.8,27.0,32.0,23.5,19.4,86,55,27,30.03,29.83,6,1,11,0.00
2013-1-2,61.0,43.4,0.0,28.4,23.9,21.2,83,51,25,29.94,29.71,6,1,12,0.00
2013-1-3,62.4,46.0,30.4,28.4,25.0,21.2,77,48,25,29.94,29.80,11,3,20,0.00
2013-1-4,58.6,47.2,36.3,26.6,24.7,21.2,58,42,28,30.06,29.88,11,4,18,0.00
2013-1-5,63.3,45.2,29.1,33.8,23.4,17.6,80,46,18,30.12,29.94,3,0,5,0.00
2013-1-6,67.5,48.3,33.8,24.8,19.5,12.2,55,36,15,30.00,29.68,9,2,15,0.00
2013-1-7,61.2,45.2,30.2,28.4,22.4,17.6,66,42,25,29.74,29.59,5,2,10,0.00
2013-1-8,63.3,46.4,29.7,30.2,22.4,17.6,69,41,24,29.91,29.68,4,1,6,0.00
2013-1-9,71.1,50.9,31.5,30.2,17.2,8.6,55,31,12,30.00,29.77,11,2,19,0.00
2013-1-10,68.0,49.7,0.0,33.8,19.7,14.0,44,32,17,29.85,29.56,8,2,18,0.00
2013-1-11,56.1,42.5,0.0,33.8,21.2,6.8,82,46,24,29.88,29.65,9,2,15,0.00
2013-1-12,53.4,35.7,23.2,19.4,9.7,3.2,55,36,19,29.91,29.77,6,1,11,0.00
2013-1-13,54.0,34.7,0.0,19.4,8.0,1.4,51,35,18,29.91,29.71,6,1,10,0.00
2013-1-14,51.8,33.4,19.9,15.8,4.1,-5.8,50,31,18,30.00,29.83,7,2,13,0.00
2013-1-15,49.5,34.0,0.0,12.2,0.8,-4.0,45,26,16,30.12,29.97,5,1,10,0.00
2013-1-16,60.4,40.5,22.1,12.2,5.7,-4.0,40,25,14,30.12,29.91,4,1,7,0.00
2013-1-17,70.3,51.7,33.1,19.4,12.7,8.6,40,23,12,30.00,29.83,10,3,24,0.00
2013-1-18,74.7,50.5,0.0,26.6,14.7,10.4,39,25,11,29.97,29.80,6,1,10,0.00
2013-1-19,74.8,54.5,34.2,26.6,17.4,12.2,41,25,11,30.03,29.83,4,1,8,0.00
2013-1-20,77.2,55.3,0.0,33.8,21.6,6.8,46,28,15,29.97,29.71,4,1,6,0.00
2013-1-21,78.6,57.8,0.0,33.8,26.0,19.4,51,31,18,29.91,29.71,4,1,8,0.00
2013-1-22,81.5,60.3,40.5,37.4,27.7,23.0,53,31,15,29.97,29.77,4,1,9,0.00
2013-1-23,86.2,61.5,42.6,35.6,27.5,23.0,47,30,14,30.00,29.77,5,1,10,0.00
2013-1-24,66.0,58.3,0.0,48.2,39.1,28.4,74,49,34,30.00,29.88,2,0,6,0.05
2013-1-25,79.5,63.8,49.1,48.2,44.1,39.2,84,53,25,29.97,29.71,2,0,6,0.00
2013-1-26,70.2,61.2,0.0,59.0,51.1,42.8,95,70,37,29.80,29.65,6,1,17,0.79
2013-1-27,69.8,58.1,47.8,53.6,46.2,39.2,96,67,35,29.83,29.68,4,1,11,0.00
2013-1-28,64.8,51.9,43.2,48.2,36.8,24.8,78,56,35,29.80,29.71,8,3,17,0.04
2013-1-29,55.8,45.5,37.0,33.8,24.1,17.6,74,45,25,29.97,29.80,8,4,16,0.00
2013-1-30,62.1,45.8,30.4,30.2,21.8,15.8,77,43,19,30.09,29.94,4,1,8,0.00
2013-1-31,64.8,46.4,31.5,30.2,25.4,17.6,70,46,24,30.03,29.85,4,1,8,0.00
2013-2-1,74.3,51.8,32.9,33.8,27.6,23.0,74,44,16,30.00,29.83,3,1,6,0.00
2013-2-2,77.9,55.8,35.6,33.8,27.8,21.2,66,38,13,30.06,29.83,3,1,6,0.00
2013-2-3,75.9,58.8,0.0,37.4,32.5,28.4,52,38,21,29.91,29.71,3,1,7,0.00
2013-2-4,75.4,57.7,0.0,39.2,34.6,32.0,66,43,23,29.83,29.68,4,1,8,0.00
2013-2-5,79.0,62.9,0.0,39.2,36.1,33.8,74,37,22,29.83,29.62,10,2,10,0.00
2013-2-6,76.1,58.3,43.5,41.0,34.6,30.2,73,44,23,29.83,29.65,12,2,12,0.00
2013-2-7,75.2,57.1,40.6,37.4,30.1,21.2,70,39,16,29.91,29.71,6,1,6,0.00
2013-2-8,71.8,56.2,42.3,32.0,23.9,15.8,51,32,14,29.74,29.53,17,2,17,0.00
2013-2-9,58.8,48.2,37.0,33.8,25.3,17.6,81,42,25,29.80,29.59,13,2,13,0.04
2013-2-10,63.0,46.2,30.6,28.4,21.9,15.8,72,41,24,29.83,29.65,8,1,8,0.00
2013-2-11,57.4,39.9,0.0,35.6,26.6,15.8,91,59,29,29.91,29.74,11,1,11,0.13
2013-2-12,57.7,42.0,0.0,37.4,28.5,21.2,94,62,31,30.03,29.91,8,1,8,0.04
2013-2-13,65.8,44.2,29.3,30.2,23.5,19.4,84,49,18,29.97,29.80,6,1,6,0.00
2013-2-14,69.4,51.0,32.2,30.2,25.1,21.2,73,41,17,29.94,29.74,8,1,8,0.00
2013-2-15,75.9,54.2,37.9,33.8,25.5,19.4,67,37,13,30.00,29.85,7,1,7,0.00
2013-2-16,78.8,58.6,37.9,24.8,16.9,8.6,50,23,10,30.06,29.71,19,3,19,0.00
2013-2-17,79.5,57.4,38.1,26.6,16.0,8.6,38,22,10,29.80,29.59,15,2,15,0.00
2013-2-18,77.4,54.8,0.0,28.4,17.4,10.4,43,25,10,29.88,29.65,8,1,8,0.00
2013-2-19,77.4,58.1,41.4,28.4,18.9,10.4,39,24,10,29.74,29.44,17,3,17,0.00
2013-2-20,52.7,43.9,34.7,37.4,32.1,26.6,94,65,36,29.71,29.47,18,3,18,0.54
2013-2-21,61.0,44.7,0.0,37.4,31.7,26.6,95,62,34,29.80,29.68,9,1,9,0.08
2013-2-22,63.1,48.5,36.1,39.2,30.5,21.2,87,52,29,29.91,29.71,13,1,13,0.00
2013-2-23,70.9,50.5,32.4,32.0,26.6,19.4,81,45,17,29.91,29.59,8,1,8,0.00
2013-2-24,57.2,46.0,36.3,30.2,17.7,5.0,69,35,15,29.85,29.59,20,4,20,0.00
2013-2-25,65.7,46.7,28.6,23.0,15.5,10.4,53,31,15,29.97,29.77,9,1,9,0.00
2013-2-26,68.2,47.8,29.5,26.6,17.2,10.4,57,33,12,29.85,29.68,12,1,12,0.00
2013-2-27,68.4,45.7,0.0,24.8,14.2,5.0,53,31,12,29.97,29.83,10,1,10,0.00
2013-2-28,73.4,53.1,30.9,23.0,12.5,5.0,47,23,11,30.06,29.88,12,2,12,0.00
2013-3-1,79.3,52.7,0.0,24.8,17.1,10.4,47,28,10,30.12,0.00,8,1,8,0.00
2013-3-2,89.4,62.1,0.0,32.0,22.0,14.0,47,25,8,30.09,29.80,7,1,7,0.00
2013-3-3,89.4,65.3,42.3,32.0,21.1,14.0,42,22,8,29.88,29.62,11,1,11,0.00
2013-3-4,77.4,65.2,51.4,30.2,24.9,19.4,37,22,13,29.85,29.65,17,3,17,0.00
2013-3-5,87.1,63.4,43.7,35.6,26.4,17.6,49,28,10,29.91,29.68,9,1,9,0.00
2013-3-6,87.8,68.3,51.1,35.6,27.2,17.6,43,24,11,29.80,29.56,10,1,10,0.00
2013-3-7,86.4,65.4,45.0,33.8,23.7,14.0,47,24,8,29.77,29.59,14,2,15,0.00
2013-3-8,74.3,60.0,0.0,48.2,33.7,24.8,63,37,24,29.74,29.53,22,4,22,0.13
2013-3-9,59.4,52.2,43.0,39.2,33.0,30.2,74,48,35,29.85,29.74,12,2,12,0.13
2013-3-10,70.3,56.6,43.5,37.4,32.6,28.4,71,42,23,29.91,29.77,13,3,13,0.00
2013-3-11,79.9,58.8,38.7,35.6,27.3,19.4,66,35,12,29.97,29.71,9,1,9,0.00
2013-3-12,89.6,64.3,41.0,35.6,27.6,21.2,51,29,10,29.91,29.68,8,1,8,0.00
2013-3-13,96.8,70.4,45.9,37.4,27.0,15.8,53,25,6,29.91,29.68,12,1,12,0.00
2013-3-14,99.3,73.5,49.3,35.6,23.3,14.0,39,20,5,29.91,29.65,8,1,8,0.04
2013-3-15,88.3,62.7,0.0,30.2,24.2,17.6,31,24,8,29.85,27.14,14,2,14,0.00
2013-3-16,88.0,77.3,0.0,26.6,19.2,14.0,25,12,8,29.68,0.00,18,4,18,0.00
2013-3-17,83.3,71.0,57.4,24.8,17.7,10.4,24,14,9,29.71,29.53,17,3,17,0.00
2013-3-18,81.9,69.4,55.9,32.0,22.6,15.8,28,18,9,29.80,29.59,10,1,10,0.04
2013-3-19,80.1,69.3,58.6,32.0,25.3,21.2,27,20,12,29.80,29.65,11,2,11,0.00
2013-3-20,81.9,70.9,57.9,32.0,25.4,21.2,27,19,12,29.83,29.59,10,1,10,0.00
2013-3-21,77.2,67.3,0.0,33.8,27.7,23.0,27,22,15,29.62,29.47,8,1,9,0.00
2013-3-22,81.1,71.4,60.8,33.8,27.8,19.4,31,20,12,29.59,29.41,17,3,17,0.00
2013-3-23,75.7,66.4,54.9,32.0,22.0,10.4,37,20,10,29.74,29.56,17,2,17,0.00
2013-3-24,76.3,63.4,0.0,17.6,12.9,6.8,21,14,10,29.83,29.59,15,2,15,0.00
2013-3-25,79.9,66.6,50.5,19.4,13.1,6.8,16,13,10,29.83,29.59,10,1,10,0.00
2013-3-26,86.9,72.0,55.9,19.4,15.6,10.4,17,12,8,29.74,29.53,18,2,18,0.00
2013-3-27,84.9,72.9,57.6,23.0,16.8,12.2,17,12,8,29.74,29.62,16,2,16,0.00
2013-3-28,84.6,75.0,58.8,28.4,18.8,3.2,19,12,8,29.83,29.65,12,2,12,0.00
2013-3-29,86.4,73.5,60.8,32.0,20.4,14.0,24,14,8,29.88,29.68,13,1,31,0.00
2013-3-30,83.5,72.5,62.1,23.0,17.1,10.4,16,12,9,29.83,29.65,12,2,12,0.00
2013-3-31,85.1,72.5,57.9,28.4,21.6,14.0,25,16,9,29.83,29.62,22,2,22,0.00
2013-4-1,83.3,72.5,58.8,35.6,23.7,14.0,26,17,11,29.80,29.59,13,3,13,0.00
2013-4-2,78.4,68.5,55.8,23.0,17.6,12.2,22,15,10,29.74,29.56,14,2,14,0.00
2013-4-3,82.0,69.4,0.0,24.8,19.3,14.0,23,15,9,29.80,29.65,12,2,12,0.00
2013-4-4,88.9,74.1,57.7,24.8,18.1,14.0,19,13,8,29.88,29.62,18,2,18,0.00
2013-4-5,87.3,76.1,63.5,26.6,21.2,12.2,16,13,11,29.74,29.59,14,3,14,0.00
2013-4-6,85.8,72.3,0.0,35.6,26.0,17.6,26,17,11,29.77,0.00,17,2,17,0.00
2013-4-7,86.0,75.2,61.7,33.8,28.1,17.6,33,19,8,29.68,29.41,12,2,12,0.00
2013-4-8,82.8,71.6,52.3,46.4,30.1,19.4,75,23,12,29.53,29.12,23,5,23,0.09
2013-4-9,67.3,60.1,53.4,46.4,30.9,19.4,75,37,17,29.68,29.41,15,4,15,0.04
2013-4-10,69.1,61.0,50.7,30.2,25.9,19.4,40,27,17,29.77,29.62,14,3,14,0.00
2013-4-11,79.3,65.9,50.4,30.2,24.9,19.4,38,23,12,29.80,29.47,9,1,9,0.00
2013-4-12,80.8,67.9,56.3,26.6,22.8,19.4,26,19,12,29.62,29.47,9,1,9,0.00
2013-4-13,84.6,71.5,53.2,26.6,21.3,15.8,30,17,8,29.68,29.44,15,3,15,0.04
2013-4-14,85.1,74.0,57.7,35.6,26.4,21.2,30,18,11,29.59,29.41,15,3,15,0.04
2013-4-15,66.2,52.7,0.0,21.2,21.0,19.4,18,14,17,29.56,27.61,0,0,0,0.04
2013-10-17,81.1,71.2,58.1,23.0,18.1,14.0,19,13,10,35.44,29.80,8,1,8,0.00
2013-10-18,80.2,65.4,50.2,30.2,21.2,15.8,28,19,12,30.00,29.83,9,1,9,0.00
2013-10-19,84.4,67.4,51.1,30.2,18.8,10.4,26,17,8,30.06,29.83,10,1,10,0.00
2013-10-20,82.9,66.4,50.9,42.8,17.5,10.4,44,16,9,30.00,29.77,15,1,15,0.00
2013-10-21,83.7,66.8,51.8,24.8,17.0,10.4,23,16,9,30.00,29.83,10,1,10,0.00
2013-10-22,87.3,70.1,51.1,24.8,16.1,10.4,20,13,8,30.03,29.83,18,2,18,0.00
2013-10-23,90.1,74.9,57.0,30.2,21.2,12.2,24,14,8,29.94,29.77,16,2,16,0.00
2013-10-24,89.2,73.7,57.9,30.2,20.3,14.0,22,14,8,29.97,29.80,14,2,14,0.00
2013-10-25,84.9,70.8,56.8,32.0,23.0,14.0,26,17,11,30.06,29.88,11,1,11,0.00
2013-10-26,84.9,69.4,53.4,32.0,24.0,19.4,28,19,11,30.12,29.88,8,1,8,0.00
2013-10-27,88.3,70.6,56.8,26.6,21.7,15.8,26,17,8,30.00,29.71,13,2,13,0.00
2013-10-28,81.7,69.8,55.4,32.0,26.0,15.8,31,20,12,29.94,29.77,17,3,19,0.00
2013-10-29,80.8,71.2,61.0,32.0,29.4,24.8,31,22,14,29.91,29.77,20,5,20,0.00
2013-10-30,69.8,61.1,52.5,35.6,29.4,21.2,39,30,23,30.03,29.91,13,2,13,0.00
2013-10-31,72.9,59.5,45.9,30.2,22.4,5.0,38,25,11,30.15,29.91,9,1,9,0.00
2013-11-1,77.2,61.4,46.6,26.6,19.7,15.8,28,20,13,30.18,29.94,6,1,6,0.00
2013-11-2,84.4,68.0,48.7,48.2,20.5,15.8,54,19,8,30.06,29.83,19,3,19,0.00
2013-11-3,79.7,69.2,60.3,51.8,42.8,32.0,67,41,22,29.94,29.68,11,1,11,0.00
2013-11-4,75.9,63.8,55.6,46.4,39.8,37.4,51,42,26,29.88,29.68,11,2,12,0.00
2013-11-5,71.1,64.0,57.0,42.8,38.2,33.8,52,39,26,30.12,29.83,10,2,10,0.00
2013-11-6,74.1,58.4,49.8,33.8,28.1,15.8,49,33,13,30.24,30.06,6,0,6,0.00
2013-11-7,79.2,64.2,0.0,24.8,19.2,12.2,25,17,12,30.24,29.94,25,3,25,0.00
2013-11-8,80.8,66.2,52.7,35.6,27.9,19.4,35,24,17,30.12,29.88,6,1,6,0.00
2013-11-9,80.1,67.9,55.0,35.6,30.9,26.6,35,25,20,30.12,29.91,9,1,9,0.00
2013-11-10,84.4,68.8,54.1,37.4,31.7,26.6,38,26,16,30.15,29.91,11,1,11,0.00
2013-11-11,86.4,68.7,0.0,37.4,31.1,26.6,35,25,16,30.12,29.91,10,1,10,0.00
2013-11-12,86.0,70.9,56.3,39.2,34.4,28.4,37,27,19,30.18,30.00,26,4,26,0.00
2013-11-13,79.2,71.1,64.8,39.2,36.8,33.8,35,29,23,30.15,29.91,27,6,27,0.00
2013-11-14,79.7,67.8,55.2,42.8,35.4,28.4,47,31,21,30.06,29.80,6,1,6,0.00
2013-11-15,76.1,66.7,55.6,48.2,39.7,30.2,50,37,26,29.85,29.62,15,3,18,0.00
2013-11-16,76.3,67.5,60.6,48.2,40.0,30.2,53,38,18,29.91,29.71,19,4,19,0.00
2013-11-17,76.5,65.5,56.1,42.8,40.1,37.4,51,40,25,30.06,29.88,15,1,15,0.00
2013-11-18,76.8,64.4,0.0,44.6,39.8,35.6,50,40,26,30.12,0.00,11,1,11,0.00
2013-11-19,77.7,64.7,52.2,39.2,34.6,32.0,45,33,21,30.03,29.80,8,1,8,0.00
2013-11-20,73.9,65.4,0.0,37.4,33.3,26.6,38,30,23,29.94,29.77,12,2,12,0.00
2013-11-21,73.0,64.7,54.3,53.6,38.0,30.2,77,38,27,29.97,29.83,13,2,13,0.00
2013-11-22,62.6,55.6,0.0,55.4,49.5,42.8,85,75,67,29.94,29.80,14,2,14,0.00
2013-11-23,55.6,51.4,48.7,48.2,45.1,41.0,94,78,63,30.06,29.91,10,2,11,0.00
2013-11-24,61.0,52.4,47.1,42.8,38.6,33.8,74,59,42,30.15,30.03,10,2,10,0.00
2013-11-25,59.7,51.5,42.4,37.4,35.4,33.8,69,55,37,30.21,30.09,8,1,8,0.00
2013-11-26,58.6,55.6,0.0,37.4,24.1,21.2,29,26,25,30.18,0.00,24,9,24,0.00
2013-11-27,63.7,58.0,54.0,26.6,22.5,21.2,27,25,23,30.18,29.97,27,10,27,0.00
2013-11-28,71.1,59.1,50.5,33.8,26.6,19.4,45,29,23,30.12,29.91,16,4,16,0.00
2013-11-29,73.4,59.1,46.6,39.2,35.1,32.0,58,42,23,30.21,30.00,9,1,9,0.00
2013-11-30,69.3,59.0,49.8,42.8,39.3,35.6,64,49,33,30.18,30.03,6,0,6,0.00
2013-12-1,70.0,59.8,53.1,46.4,41.5,37.4,69,51,33,30.24,30.09,6,0,6,0.00
2013-12-2,69.8,57.2,46.2,42.8,37.3,32.0,71,49,27,30.18,29.91,8,0,8,0.00
2013-12-3,68.7,54.5,46.4,37.4,33.9,32.0,57,46,27,29.97,29.68,6,0,6,0.00
2013-12-4,67.8,59.7,46.9,42.8,36.9,30.2,82,44,25,29.94,29.74,20,5,20,0.00
2013-12-5,50.7,47.7,42.4,44.6,33.3,21.2,87,58,38,30.12,29.88,9,1,9,0.00
2013-12-6,52.3,43.7,35.6,30.2,23.9,19.4,67,46,29,30.21,30.03,6,1,6,0.00
2013-12-7,58.1,45.7,34.3,30.2,23.7,19.4,64,43,26,30.12,29.91,9,1,9,0.00
2013-12-8,58.1,50.3,42.1,35.6,31.8,23.0,60,49,38,30.12,29.97,8,1,8,0.00
2013-12-9,50.0,44.6,0.0,28.4,21.2,15.8,48,39,27,30.24,30.03,7,0,7,0.00
2013-12-10,61.3,50.6,0.0,24.8,21.6,17.6,54,32,21,30.24,30.03,10,1,10,0.00
2013-12-11,70.3,50.8,38.7,35.6,27.0,21.2,54,41,25,30.18,30.03,8,0,8,0.00
2013-12-12,70.5,60.8,51.6,37.4,29.1,24.8,38,30,26,30.18,29.97,20,4,20,0.00
2013-12-13,62.6,50.6,0.0,30.2,27.2,24.8,54,40,27,30.15,30.03,6,1,6,0.00
2013-12-14,63.3,52.5,0.0,30.2,25.8,23.0,57,35,24,30.27,0.00,8,1,8,0.00
2013-12-15,66.6,52.0,37.8,28.4,24.3,21.2,52,35,20,30.33,30.12,9,1,9,0.00
2013-12-16,76.6,56.2,40.1,32.0,24.9,19.4,49,32,13,30.27,30.03,10,1,10,0.00
2013-12-17,80.1,58.6,44.1,33.8,27.3,21.2,45,32,12,30.24,30.00,5,0,5,0.00
2013-12-18,76.3,60.1,48.7,32.0,27.8,24.8,41,30,15,30.09,29.83,8,0,8,0.00
2013-12-19,65.3,56.4,48.4,28.4,25.3,23.0,37,30,24,29.88,29.80,15,2,15,0.00
2013-12-20,55.9,49.7,0.0,41.0,35.6,26.6,76,57,43,29.83,0.00,15,3,15,0.00
2013-12-21,55.8,50.4,45.7,39.2,34.9,30.2,69,55,39,30.09,29.83,14,2,14,0.00
2013-12-22,59.0,48.4,38.1,39.2,32.6,28.4,75,55,35,30.27,30.03,8,0,8,0.00
2013-12-23,62.8,49.4,37.4,33.8,29.8,24.8,69,49,26,30.33,30.15,7,1,7,0.00
2013-12-24,66.7,53.4,0.0,30.2,25.6,21.2,49,34,23,30.24,30.03,14,2,14,0.00
2013-12-25,66.4,51.4,37.4,30.2,26.1,21.2,60,40,24,30.24,30.09,6,0,6,0.00
2013-12-26,65.3,55.6,48.7,26.6,21.6,17.6,31,26,20,30.24,30.03,19,4,19,0.00
2013-12-27,67.1,55.9,44.2,26.6,19.6,15.8,38,25,15,30.21,30.06,13,2,13,0.00
2013-12-28,64.8,53.5,40.1,28.4,22.9,15.8,40,30,23,30.15,29.91,10,1,10,0.00
2013-12-29,64.4,53.5,43.0,30.2,26.8,23.0,50,36,24,30.12,29.91,10,1,10,0.00
2013-12-30,65.5,50.7,38.7,30.2,25.1,23.0,52,38,23,30.27,30.09,7,1,7,0.00
2013-12-31,69.4,53.2,39.9,30.2,23.8,19.4,47,33,17,30.24,30.00,8,1,8,0.00
2014-1-1,69.3,53.2,40.8,28.4,23.9,19.4,43,33,20,30.18,29.97,10,1,10,0.00
2014-1-2,68.7,49.9,0.0,26.6,22.6,19.4,44,35,17,30.18,29.97,7,1,7,0.00